Time;durP1;ratioP1;P1;durP2;ratioP2;P2;SDS_P1;SDS_P2;PMS_P1;PMS_P2;Temp;Humidity;BMP_temperature;BMP_pressure;BME280_temperature;BME280_humidity;BME280_pressure;Samples;Min_cycle;Max_cycle;Signal;HPM_P1;HPM_P2
2023/01/10 00:01:36;;;;;;;0.80;0.80;;;5.90;99.90;;;;;;6237839;23;20097;-74
2023/01/10 00:04:02;;;;;;;1.35;0.90;;;5.90;99.90;;;;;;6236638;22;20027;-74
2023/01/10 00:06:27;;;;;;;2.60;0.80;;;5.80;99.90;;;;;;6238255;22;20045;-74
2023/01/10 00:08:53;;;;;;;2.28;1.25;;;5.80;99.90;;;;;;6237311;22;20447;-74
2023/01/10 00:14:03;;;;;;;1.00;0.98;;;5.60;99.90;;;;;;6238446;22;20023;-74
2023/01/10 00:16:29;;;;;;;0.93;0.93;;;5.60;99.90;;;;;;6239074;22;20000;-74
2023/01/10 00:18:54;;;;;;;0.77;0.77;;;5.60;99.90;;;;;;6238647;22;20011;-74
2023/01/10 00:21:20;;;;;;;1.15;1.05;;;5.60;99.90;;;;;;6237989;22;20063;-74
2023/01/10 00:23:47;;;;;;;1.02;0.90;;;5.60;99.90;;;;;;6239223;22;20201;-74
2023/01/10 00:26:13;;;;;;;1.17;1.10;;;5.60;99.90;;;;;;6210748;23;20008;-74
2023/01/10 00:28:39;;;;;;;1.20;1.10;;;5.60;99.90;;;;;;6238812;22;19996;-74
2023/01/10 00:31:05;;;;;;;1.20;0.90;;;5.60;99.90;;;;;;6240814;22;20012;-74
2023/01/10 00:33:35;;;;;;;1.20;1.00;;;5.60;99.90;;;;;;6239764;22;20004;-74
2023/01/10 00:36:06;;;;;;;4.38;1.00;;;5.60;99.90;;;;;;6240310;22;20026;-74
2023/01/10 00:38:33;;;;;;;0.75;0.73;;;5.60;99.90;;;;;;6241096;22;20008;-74
2023/01/10 00:40:59;;;;;;;0.90;0.90;;;5.60;99.90;;;;;;6213200;23;20031;-74
2023/01/10 00:46:10;;;;;;;1.30;1.20;;;5.70;99.90;;;;;;6238958;22;20063;-74
2023/01/10 00:48:35;;;;;;;1.15;0.85;;;5.70;99.90;;;;;;6213937;23;20000;-74
2023/01/10 00:51:02;;;;;;;1.10;1.05;;;5.70;99.90;;;;;;6239989;22;20011;-74
2023/01/10 00:53:28;;;;;;;0.80;0.80;;;5.70;99.90;;;;;;6239621;22;20007;-74
2023/01/10 00:55:54;;;;;;;1.17;1.08;;;5.60;99.90;;;;;;6240653;22;20000;-74
2023/01/10 00:58:21;;;;;;;1.20;0.90;;;5.60;99.90;;;;;;6239745;22;20015;-74
2023/01/10 01:00:50;;;;;;;1.13;0.93;;;5.70;99.90;;;;;;6240083;22;20337;-74
2023/01/10 01:03:18;;;;;;;0.90;0.90;;;5.70;99.90;;;;;;6240152;23;20069;-74
2023/01/10 01:05:45;;;;;;;0.80;0.80;;;5.70;99.90;;;;;;6212569;23;20008;-74
2023/01/10 01:08:12;;;;;;;0.88;0.88;;;5.70;99.90;;;;;;6239772;22;20448;-74
2023/01/10 01:10:37;;;;;;;1.02;0.93;;;5.60;99.90;;;;;;6240622;22;20007;-74
2023/01/10 01:13:11;;;;;;;1.50;1.00;;;5.60;99.90;;;;;;6239554;23;20001;-74
2023/01/10 01:15:36;;;;;;;0.80;0.80;;;5.60;99.90;;;;;;6239282;22;20007;-74
2023/01/10 01:18:03;;;;;;;0.70;0.70;;;5.60;99.90;;;;;;6240306;22;20344;-74
2023/01/10 01:20:29;;;;;;;1.00;0.70;;;5.60;99.90;;;;;;6239745;22;20079;-74
2023/01/10 01:22:55;;;;;;;1.05;0.80;;;5.60;99.90;;;;;;6239609;23;20012;-74
2023/01/10 01:25:21;;;;;;;0.63;0.63;;;5.60;99.90;;;;;;6239980;22;20348;-74
2023/01/10 01:27:47;;;;;;;0.52;0.52;;;5.60;99.90;;;;;;6212590;23;20001;-74
2023/01/10 01:30:16;;;;;;;1.05;0.75;;;5.60;99.90;;;;;;6240088;22;20012;-74
2023/01/10 01:32:42;;;;;;;0.60;0.60;;;5.60;99.90;;;;;;6213375;23;20004;-74
2023/01/10 01:35:09;;;;;;;0.50;0.50;;;5.60;99.90;;;;;;6212104;23;20015;-74
2023/01/10 01:37:35;;;;;;;0.88;0.70;;;5.60;99.90;;;;;;6239946;23;20087;-74
2023/01/10 01:40:03;;;;;;;0.50;0.50;;;5.60;99.90;;;;;;6212629;22;20383;-74
2023/01/10 01:42:33;;;;;;;0.95;0.63;;;5.70;99.90;;;;;;6239265;23;20004;-74
2023/01/10 01:45:08;;;;;;;2.63;0.77;;;5.70;99.90;;;;;;6212609;23;20004;-74
2023/01/10 01:47:38;;;;;;;0.60;0.60;;;5.70;99.90;;;;;;6239951;23;20494;-74
2023/01/10 01:50:04;;;;;;;1.08;0.57;;;5.70;99.90;;;;;;6240120;22;20001;-74
2023/01/10 01:52:33;;;;;;;0.50;0.50;;;5.70;99.90;;;;;;6239017;23;20054;-74
2023/01/10 01:55:02;;;;;;;2.92;0.70;;;5.80;99.90;;;;;;6239594;22;20027;-74
2023/01/10 01:57:30;;;;;;;0.80;0.80;;;5.80;99.90;;;;;;6240029;23;20414;-74
2023/01/10 01:59:56;;;;;;;0.70;0.70;;;5.80;99.90;;;;;;6239088;22;20057;-74
2023/01/10 02:02:27;;;;;;;0.70;0.70;;;5.80;99.90;;;;;;6239438;22;20008;-74
2023/01/10 02:05:01;;;;;;;0.65;0.65;;;5.80;99.90;;;;;;6239806;23;20004;-74
2023/01/10 02:07:32;;;;;;;0.60;0.60;;;5.80;99.90;;;;;;6213023;23;20039;-74
2023/01/10 02:10:16;;;;;;;0.50;0.50;;;5.90;99.90;;;;;;6239276;22;20011;-74
2023/01/10 02:12:44;;;;;;;0.40;0.40;;;6.00;99.90;;;;;;6239795;22;20633;-74
2023/01/10 02:15:11;;;;;;;0.50;0.30;;;6.10;99.90;;;;;;6211846;23;20370;-74
2023/01/10 02:17:38;;;;;;;0.73;0.50;;;6.20;99.90;;;;;;6212259;23;20004;-74
2023/01/10 02:20:09;;;;;;;0.60;0.60;;;6.20;99.90;;;;;;6212650;23;20392;-74
2023/01/10 02:22:57;;;;;;;0.30;0.30;;;6.20;99.90;;;;;;6238823;22;20007;-74
2023/01/10 02:25:47;;;;;;;0.50;0.47;;;6.20;99.90;;;;;;6212549;23;20066;-73
2023/01/10 02:28:32;;;;;;;0.50;0.50;;;6.30;99.90;;;;;;6238732;22;19996;-74
2023/01/10 02:31:12;;;;;;;0.50;0.45;;;6.30;99.90;;;;;;6238570;22;20012;-74
2023/01/10 02:33:43;;;;;;;0.40;0.40;;;6.40;99.90;;;;;;6211797;22;20004;-74
2023/01/10 02:36:09;;;;;;;0.68;0.57;;;6.50;99.90;;;;;;6211443;23;20004;-74
2023/01/10 02:39:04;;;;;;;0.40;0.40;;;6.50;99.90;;;;;;6239668;22;20058;-74
2023/01/10 02:42:02;;;;;;;0.20;0.20;;;6.60;99.90;;;;;;6238514;22;20075;-74
2023/01/10 02:44:39;;;;;;;0.45;0.45;;;6.70;99.90;;;;;;6081266;23;20010;-74
2023/01/10 02:47:07;;;;;;;0.40;0.40;;;6.80;99.90;;;;;;6210496;22;20004;-74
2023/01/10 02:49:49;;;;;;;0.22;0.22;;;6.90;99.90;;;;;;6239073;22;20494;-74
2023/01/10 02:52:26;;;;;;;0.40;0.40;;;6.90;99.90;;;;;;6239331;22;20000;-74
2023/01/10 02:55:00;;;;;;;0.40;0.40;;;7.00;99.90;;;;;;6239457;22;20279;-74
2023/01/10 02:57:36;;;;;;;0.30;0.30;;;6.90;99.90;;;;;;6238864;23;20008;-74
2023/01/10 03:00:14;;;;;;;0.50;0.50;;;6.90;99.90;;;;;;6211880;23;20518;-74
2023/01/10 03:03:01;;;;;;;0.55;0.40;;;6.80;99.90;;;;;;6238542;22;20000;-74
2023/01/10 03:06:11;;;;;;;0.32;0.32;;;6.70;99.90;;;;;;6239086;22;20000;-74
2023/01/10 03:08:49;;;;;;;0.47;0.47;;;6.70;99.90;;;;;;6087592;23;20006;-74
2023/01/10 03:11:15;;;;;;;0.47;0.45;;;6.80;99.90;;;;;;6063445;23;20033;-74
2023/01/10 03:13:51;;;;;;;0.57;0.40;;;6.80;99.90;;;;;;6170145;23;20015;-74
2023/01/10 03:16:25;;;;;;;0.32;0.30;;;6.80;99.90;;;;;;6238224;22;20004;-74
2023/01/10 03:18:53;;;;;;;0.50;0.50;;;6.80;99.90;;;;;;6211319;22;20015;-74
2023/01/10 03:21:21;;;;;;;0.63;0.63;;;6.90;99.90;;;;;;6239115;22;20011;-74
2023/01/10 03:23:49;;;;;;;0.40;0.40;;;6.90;99.90;;;;;;6212093;23;20532;-74
2023/01/10 03:26:21;;;;;;;0.50;0.50;;;6.90;99.90;;;;;;6211071;23;20004;-74
2023/01/10 03:28:54;;;;;;;0.40;0.38;;;7.00;99.90;;;;;;6238322;22;20067;-74
2023/01/10 03:31:30;;;;;;;0.40;0.40;;;6.90;99.90;;;;;;6238732;22;20444;-74
2023/01/10 03:33:56;;;;;;;0.28;0.28;;;7.00;99.90;;;;;;6239365;22;20000;-74
2023/01/10 03:36:35;;;;;;;0.32;0.32;;;6.90;99.90;;;;;;6211519;23;20371;-74
2023/01/10 03:39:14;;;;;;;0.43;0.43;;;6.90;99.90;;;;;;6211776;23;20522;-74
2023/01/10 03:41:53;;;;;;;1.08;0.60;;;6.80;99.90;;;;;;6211937;23;20344;-73
2023/01/10 03:44:47;;;;;;;0.70;0.70;;;6.70;99.90;;;;;;6239036;22;20475;-74
2023/01/10 03:47:20;;;;;;;0.40;0.40;;;6.80;99.90;;;;;;6237896;22;20329;-74
2023/01/10 03:49:52;;;;;;;0.50;0.50;;;6.70;99.90;;;;;;6238708;23;20226;-74
2023/01/10 03:52:19;;;;;;;0.65;0.63;;;6.70;99.90;;;;;;6212430;23;20050;-74
2023/01/10 03:54:46;;;;;;;0.30;0.30;;;6.70;99.90;;;;;;6211332;23;20041;-74
2023/01/10 03:57:22;;;;;;;0.30;0.30;;;6.70;99.90;;;;;;6211427;23;20517;-74
2023/01/10 03:59:52;;;;;;;0.40;0.40;;;6.70;99.90;;;;;;6238358;22;20007;-74
2023/01/10 04:02:18;;;;;;;0.45;0.40;;;6.70;99.90;;;;;;6238872;22;20087;-74
2023/01/10 04:04:44;;;;;;;0.47;0.47;;;6.80;99.90;;;;;;6212829;23;20036;-74
2023/01/10 04:07:09;;;;;;;0.22;0.22;;;6.70;99.90;;;;;;6213600;23;20007;-74
2023/01/10 04:09:35;;;;;;;0.50;0.50;;;6.70;99.90;;;;;;6240810;22;20377;-74
2023/01/10 04:12:01;;;;;;;0.40;0.40;;;6.80;99.90;;;;;;6239835;22;20001;-74
2023/01/10 04:14:27;;;;;;;0.40;0.40;;;6.80;99.90;;;;;;6213993;23;20040;-74
2023/01/10 04:16:54;;;;;;;0.20;0.20;;;6.90;99.90;;;;;;6239912;23;20007;-74
2023/01/10 04:19:19;;;;;;;0.55;0.55;;;6.90;99.90;;;;;;6239878;23;20027;-74
2023/01/10 04:21:45;;;;;;;0.40;0.40;;;6.90;99.90;;;;;;6214234;23;20306;-74
2023/01/10 04:24:11;;;;;;;0.45;0.45;;;6.90;99.90;;;;;;6239983;23;20004;-74
2023/01/10 04:26:37;;;;;;;0.40;0.40;;;6.90;99.90;;;;;;6240414;22;20000;-74
2023/01/10 04:29:04;;;;;;;0.40;0.40;;;6.90;99.90;;;;;;6240541;23;20386;-74
2023/01/10 04:31:31;;;;;;;0.30;0.30;;;7.00;99.90;;;;;;6239644;23;20059;-73
2023/01/10 04:33:56;;;;;;;0.50;0.50;;;6.90;99.90;;;;;;6240810;23;20007;-74
2023/01/10 04:36:22;;;;;;;0.30;0.30;;;7.00;99.90;;;;;;6239932;23;20004;-73
2023/01/10 04:38:48;;;;;;;0.40;0.40;;;7.00;99.90;;;;;;6239895;23;20027;-74
2023/01/10 04:41:14;;;;;;;0.40;0.40;;;7.00;99.90;;;;;;6240571;23;20007;-74
2023/01/10 04:43:39;;;;;;;0.40;0.40;;;7.00;99.90;;;;;;6212459;23;20054;-74
2023/01/10 04:46:05;;;;;;;0.43;0.43;;;7.10;99.90;;;;;;6240146;23;20001;-74
2023/01/10 04:48:31;;;;;;;0.40;0.40;;;7.10;99.90;;;;;;6239935;23;20032;-74
2023/01/10 04:50:56;;;;;;;0.20;0.20;;;7.10;99.90;;;;;;6212612;23;20498;-74
2023/01/10 04:53:22;;;;;;;0.30;0.30;;;7.20;99.90;;;;;;6213840;23;20034;-74
2023/01/10 04:55:48;;;;;;;0.38;0.38;;;7.40;99.90;;;;;;6239455;23;20054;-74
2023/01/10 04:58:14;;;;;;;0.40;0.40;;;7.50;99.90;;;;;;6240293;23;20053;-74
2023/01/10 05:00:39;;;;;;;0.40;0.40;;;7.50;99.90;;;;;;6240218;23;20091;-74
2023/01/10 05:03:05;;;;;;;0.50;0.50;;;7.60;99.90;;;;;;6212004;23;20008;-74
2023/01/10 05:05:31;;;;;;;0.65;0.30;;;7.50;99.90;;;;;;6240255;23;20004;-74
2023/01/10 05:07:57;;;;;;;0.47;0.47;;;7.50;99.90;;;;;;6239818;23;20004;-74
2023/01/10 05:10:23;;;;;;;0.30;0.30;;;7.60;99.90;;;;;;6239493;23;19996;-74
2023/01/10 05:12:48;;;;;;;0.30;0.30;;;7.70;99.90;;;;;;6213703;23;20004;-73
2023/01/10 05:15:14;;;;;;;0.30;0.30;;;7.70;99.90;;;;;;6238827;23;20380;-74
2023/01/10 05:17:40;;;;;;;0.32;0.32;;;7.70;99.90;;;;;;6213514;23;20008;-73
2023/01/10 05:20:07;;;;;;;0.60;0.50;;;7.70;99.90;;;;;;6239673;23;20031;-73
2023/01/10 05:22:33;;;;;;;0.55;0.32;;;7.70;99.90;;;;;;6239279;23;20011;-74
2023/01/10 05:24:58;;;;;;;0.32;0.32;;;7.60;99.90;;;;;;6240051;23;20000;-73
2023/01/10 05:27:24;;;;;;;0.35;0.30;;;7.70;99.90;;;;;;6239458;23;20001;-73
2023/01/10 05:29:50;;;;;;;0.40;0.40;;;7.70;99.90;;;;;;6239783;23;20012;-73
2023/01/10 05:32:16;;;;;;;0.30;0.30;;;7.90;99.90;;;;;;6212813;23;20007;-73
2023/01/10 05:34:44;;;;;;;0.45;0.45;;;7.90;99.90;;;;;;6212236;23;20066;-73
2023/01/10 05:37:10;;;;;;;0.40;0.40;;;7.90;99.90;;;;;;6240080;22;20483;-73
2023/01/10 05:39:37;;;;;;;0.40;0.40;;;7.90;99.90;;;;;;6239226;22;20032;-73
2023/01/10 05:42:04;;;;;;;0.40;0.40;;;7.90;99.90;;;;;;6212434;23;20066;-73
2023/01/10 05:44:30;;;;;;;0.55;0.40;;;7.80;99.90;;;;;;6211786;23;20081;-73
2023/01/10 05:46:58;;;;;;;0.30;0.20;;;7.80;99.90;;;;;;6211098;23;20411;-73
2023/01/10 05:49:24;;;;;;;0.52;0.38;;;7.80;99.90;;;;;;6237804;22;20080;-73
2023/01/10 05:51:53;;;;;;;0.32;0.32;;;7.80;99.90;;;;;;6239039;22;20024;-73
2023/01/10 05:54:21;;;;;;;0.30;0.30;;;7.90;99.90;;;;;;6238059;23;20027;-73
2023/01/10 05:56:47;;;;;;;0.38;0.30;;;8.00;99.90;;;;;;6237603;22;20024;-74
2023/01/10 05:59:13;;;;;;;0.20;0.20;;;7.90;99.90;;;;;;6238737;22;20015;-73
2023/01/10 06:01:38;;;;;;;0.30;0.30;;;8.10;99.90;;;;;;6237626;22;20011;-73
2023/01/10 06:04:04;;;;;;;0.40;0.40;;;8.10;99.90;;;;;;6212414;23;20039;-73
2023/01/10 06:06:30;;;;;;;1.02;0.30;;;8.10;99.90;;;;;;6239702;23;20803;-73
2023/01/10 06:08:57;;;;;;;0.30;0.30;;;8.00;99.90;;;;;;6238841;22;20003;-73
2023/01/10 06:11:28;;;;;;;0.30;0.30;;;8.00;99.90;;;;;;6239494;22;20436;-73
2023/01/10 06:13:55;;;;;;;0.43;0.43;;;8.10;99.90;;;;;;6212126;23;20018;-73
2023/01/10 06:16:21;;;;;;;0.30;0.30;;;8.10;99.90;;;;;;6238647;22;20462;-73
2023/01/10 06:18:47;;;;;;;0.25;0.25;;;8.00;99.90;;;;;;6241875;23;20004;-73
2023/01/10 06:21:12;;;;;;;0.40;0.40;;;8.10;99.90;;;;;;6239517;23;20433;-73
2023/01/10 06:23:38;;;;;;;1.23;0.40;;;8.10;99.90;;;;;;6239748;22;20383;-73
2023/01/10 06:26:04;;;;;;;0.50;0.50;;;8.00;99.90;;;;;;6238886;22;20004;-74
2023/01/10 06:28:30;;;;;;;1.73;0.20;;;8.00;99.90;;;;;;6210669;23;20086;-73
2023/01/10 06:30:55;;;;;;;0.40;0.40;;;8.00;99.90;;;;;;6236827;23;20117;-73
2023/01/10 06:33:21;;;;;;;0.40;0.38;;;7.90;99.90;;;;;;6236579;22;20000;-73
2023/01/10 06:35:47;;;;;;;0.30;0.30;;;7.90;99.90;;;;;;6238133;23;19996;-74
2023/01/10 06:38:14;;;;;;;0.30;0.30;;;7.90;99.90;;;;;;6210469;22;20391;-73
2023/01/10 06:40:40;;;;;;;0.50;0.50;;;7.80;99.90;;;;;;6237626;22;20000;-73
2023/01/10 06:43:05;;;;;;;0.40;0.40;;;7.90;99.90;;;;;;6211609;23;20283;-73
2023/01/10 06:45:32;;;;;;;0.57;0.57;;;7.80;99.90;;;;;;6238446;22;20008;-73
2023/01/10 06:47:57;;;;;;;0.55;0.40;;;7.80;99.90;;;;;;6211888;22;20126;-73
2023/01/10 06:50:23;;;;;;;0.35;0.35;;;7.80;99.90;;;;;;6238359;23;20456;-73
2023/01/10 06:52:56;;;;;;;0.38;0.30;;;7.70;99.90;;;;;;6238497;23;20007;-73
2023/01/10 06:55:22;;;;;;;2.15;0.55;;;7.70;99.90;;;;;;6239044;22;20079;-73
2023/01/10 06:57:48;;;;;;;0.30;0.30;;;7.70;99.90;;;;;;6238360;23;20104;-73
2023/01/10 07:00:14;;;;;;;0.40;0.40;;;7.70;99.90;;;;;;6238440;22;20004;-73
2023/01/10 07:02:40;;;;;;;0.50;0.50;;;7.60;99.90;;;;;;6238935;22;20004;-73
2023/01/10 07:05:05;;;;;;;0.40;0.40;;;7.60;99.90;;;;;;6238328;22;20314;-73
2023/01/10 07:07:31;;;;;;;1.05;0.70;;;7.50;99.90;;;;;;6238359;22;20003;-73
2023/01/10 07:09:58;;;;;;;0.40;0.40;;;7.50;99.90;;;;;;6239395;23;20000;-74
2023/01/10 07:12:27;;;;;;;0.50;0.50;;;7.40;99.90;;;;;;6238739;22;20051;-73
2023/01/10 07:14:52;;;;;;;0.55;0.55;;;7.40;99.90;;;;;;6238530;22;20027;-73
2023/01/10 07:17:18;;;;;;;0.50;0.50;;;7.30;99.90;;;;;;6238984;22;20062;-73
2023/01/10 07:19:44;;;;;;;0.60;0.60;;;7.30;99.90;;;;;;6237914;23;20011;-74
2023/01/10 07:22:10;;;;;;;0.60;0.60;;;7.30;99.90;;;;;;6212443;23;20043;-73
2023/01/10 07:24:36;;;;;;;0.52;0.52;;;7.20;99.90;;;;;;6211874;22;20004;-73
2023/01/10 07:27:02;;;;;;;0.65;0.40;;;7.20;99.90;;;;;;6238246;23;20008;-73
2023/01/10 07:29:27;;;;;;;0.57;0.57;;;7.20;99.90;;;;;;6239121;23;20012;-73
2023/01/10 07:31:53;;;;;;;1.90;1.10;;;7.20;99.90;;;;;;6238155;22;20000;-73
2023/01/10 07:34:19;;;;;;;1.15;0.55;;;7.10;99.90;;;;;;6238603;23;20416;-73
2023/01/10 07:36:44;;;;;;;0.70;0.70;;;7.10;99.90;;;;;;6238691;23;20085;-73
2023/01/10 07:39:10;;;;;;;0.57;0.57;;;7.10;99.90;;;;;;6210829;23;20018;-73
2023/01/10 07:41:36;;;;;;;0.80;0.50;;;7.20;99.90;;;;;;6239209;23;20000;-73
2023/01/10 07:44:02;;;;;;;0.90;0.50;;;7.10;99.90;;;;;;6211594;22;20066;-73
2023/01/10 07:46:27;;;;;;;0.70;0.70;;;7.20;99.90;;;;;;6238758;22;20332;-73
2023/01/10 07:48:53;;;;;;;0.77;0.77;;;7.20;99.90;;;;;;6238555;22;19988;-73
2023/01/10 07:51:19;;;;;;;1.48;0.60;;;7.20;99.90;;;;;;6237372;22;19997;-73
2023/01/10 07:53:45;;;;;;;1.15;0.50;;;7.20;99.90;;;;;;6239336;22;20150;-73
2023/01/10 07:56:10;;;;;;;1.85;0.65;;;7.30;99.90;;;;;;6238423;23;20019;-73
2023/01/10 07:58:36;;;;;;;0.70;0.60;;;7.30;99.90;;;;;;6212019;23;20095;-73
2023/01/10 08:01:05;;;;;;;0.70;0.70;;;7.30;99.90;;;;;;6239339;23;20008;-74
2023/01/10 08:03:34;;;;;;;0.63;0.63;;;7.30;99.90;;;;;;6236357;22;20698;-73
2023/01/10 08:06:02;;;;;;;0.82;0.60;;;7.40;99.90;;;;;;6236628;22;20155;-73
2023/01/10 08:08:29;;;;;;;2.00;0.60;;;7.50;99.90;;;;;;6236186;22;20005;-73
2023/01/10 08:10:55;;;;;;;0.80;0.60;;;7.50;99.90;;;;;;6236826;23;20000;-73
2023/01/10 08:13:21;;;;;;;1.33;0.60;;;7.60;99.90;;;;;;6236422;22;20008;-73
2023/01/10 08:15:49;;;;;;;0.98;0.82;;;7.60;99.90;;;;;;6236149;22;20023;-73
2023/01/10 08:18:15;;;;;;;2.45;1.10;;;7.60;99.90;;;;;;6236965;22;20000;-73
2023/01/10 08:20:41;;;;;;;1.20;0.90;;;7.60;99.90;;;;;;6235741;22;20019;-73
2023/01/10 08:23:07;;;;;;;1.02;0.93;;;7.60;99.90;;;;;;6241635;22;20008;-73
2023/01/10 08:25:35;;;;;;;1.02;0.70;;;7.60;99.90;;;;;;6216081;22;20054;-73
2023/01/10 08:28:01;;;;;;;0.70;0.60;;;7.60;99.90;;;;;;6243433;22;20046;-73
2023/01/10 08:30:27;;;;;;;0.57;0.50;;;7.70;99.90;;;;;;6238680;22;20012;-73
2023/01/10 08:32:52;;;;;;;0.47;0.47;;;7.70;99.90;;;;;;6237405;23;20001;-73
2023/01/10 08:35:18;;;;;;;0.68;0.68;;;7.80;99.90;;;;;;6238277;23;20420;-73
2023/01/10 08:37:44;;;;;;;1.00;0.73;;;7.80;99.90;;;;;;6238915;22;20410;-73
2023/01/10 08:40:10;;;;;;;1.50;0.80;;;7.90;99.90;;;;;;6237434;22;20015;-73
2023/01/10 08:42:35;;;;;;;0.52;0.52;;;8.00;99.90;;;;;;6239057;22;20024;-73
2023/01/10 08:45:01;;;;;;;1.13;0.90;;;8.30;99.90;;;;;;6238194;23;20007;-73
2023/01/10 08:47:27;;;;;;;1.38;1.30;;;8.40;99.90;;;;;;6237672;23;20024;-73
2023/01/10 08:49:53;;;;;;;1.23;1.13;;;8.40;99.90;;;;;;6238583;22;19996;-73
2023/01/10 08:52:19;;;;;;;0.70;0.70;;;8.60;99.90;;;;;;6245668;22;20062;-73
2023/01/10 08:54:45;;;;;;;1.48;1.10;;;8.70;99.90;;;;;;6245474;22;20337;-73
2023/01/10 08:57:14;;;;;;;0.82;0.82;;;8.80;99.50;;;;;;6218714;23;20004;-74
2023/01/10 08:59:42;;;;;;;0.30;0.30;;;9.00;99.20;;;;;;6245351;22;20333;-73
2023/01/10 09:02:12;;;;;;;0.88;0.88;;;9.10;97.40;;;;;;6245453;22;20004;-73
2023/01/10 09:04:38;;;;;;;0.60;0.60;;;9.30;96.10;;;;;;6245264;23;20000;-73
2023/01/10 09:07:03;;;;;;;0.45;0.45;;;9.40;95.40;;;;;;6245319;22;20054;-74
2023/01/10 09:09:29;;;;;;;1.77;1.65;;;9.50;95.70;;;;;;6218710;23;20336;-73
2023/01/10 09:11:56;;;;;;;0.82;0.68;;;9.60;94.70;;;;;;6239610;22;20332;-73
2023/01/10 09:14:22;;;;;;;0.57;0.57;;;9.70;93.40;;;;;;6240616;22;20011;-73
2023/01/10 09:16:50;;;;;;;0.57;0.57;;;9.90;91.90;;;;;;6239625;22;20004;-73
2023/01/10 09:19:16;;;;;;;0.40;0.40;;;10.00;91.80;;;;;;6239564;22;20435;-73
2023/01/10 09:21:42;;;;;;;0.30;0.30;;;10.10;91.20;;;;;;6212896;23;20004;-73
2023/01/10 09:24:08;;;;;;;1.15;0.50;;;10.10;91.20;;;;;;6212706;23;20015;-73
2023/01/10 09:26:33;;;;;;;0.20;0.20;;;10.10;91.00;;;;;;6240523;23;19996;-73
2023/01/10 09:28:59;;;;;;;0.55;0.40;;;10.10;91.30;;;;;;6239202;22;20424;-73
2023/01/10 09:31:25;;;;;;;0.30;0.30;;;10.10;91.20;;;;;;6239325;22;20424;-73
2023/01/10 09:33:51;;;;;;;0.25;0.25;;;10.20;91.50;;;;;;6240304;22;20034;-73
2023/01/10 09:36:16;;;;;;;0.88;0.88;;;10.30;90.50;;;;;;6239468;22;20007;-73
2023/01/10 09:38:43;;;;;;;0.57;0.57;;;10.30;90.60;;;;;;6239827;22;20039;-73
2023/01/10 09:41:33;;;;;;;0.80;0.77;;;10.40;89.40;;;;;;6239897;22;20004;-73
2023/01/10 09:44:05;;;;;;;0.65;0.60;;;10.50;87.60;;;;;;6240128;22;20000;-73
2023/01/10 09:46:36;;;;;;;;;;;10.50;88.20;;;;;;6243349;22;20062;-73
2023/01/10 09:49:32;;;;;;;0.68;0.50;;;10.60;89.10;;;;;;6217821;23;20312;-73
2023/01/10 09:51:59;;;;;;;0.47;0.47;;;10.50;89.90;;;;;;6244987;22;20008;-78
2023/01/10 09:54:32;;;;;;;0.30;0.30;;;10.60;87.60;;;;;;6213237;23;20004;-79
2023/01/10 09:57:00;;;;;;;0.40;0.40;;;10.80;83.90;;;;;;6241597;22;19992;-78
2023/01/10 09:59:49;;;;;;;0.43;0.43;;;10.70;88.70;;;;;;6240998;22;20008;-79
2023/01/10 10:02:26;;;;;;;0.50;0.50;;;10.70;86.00;;;;;;6241472;22;20049;-78
2023/01/10 10:05:15;;;;;;;0.73;0.68;;;10.80;85.90;;;;;;6240970;22;20015;-79
2023/01/10 10:07:41;;;;;;;0.30;0.30;;;10.80;88.10;;;;;;6238771;22;19997;-79
2023/01/10 10:10:17;;;;;;;0.70;0.70;;;10.90;84.50;;;;;;6239366;22;20038;-79
2023/01/10 10:12:53;;;;;;;0.45;0.45;;;10.90;85.20;;;;;;6240664;22;19996;-78
2023/01/10 10:15:50;;;;;;;0.43;0.43;;;10.90;85.30;;;;;;6244941;22;20433;-78
2023/01/10 10:18:53;;;;;;;0.40;0.40;;;11.00;84.90;;;;;;6240129;22;20011;-78
2023/01/10 10:21:30;;;;;;;1.85;0.57;;;10.90;87.30;;;;;;6211228;23;20016;-78
2023/01/10 10:24:04;;;;;;;0.70;0.70;;;11.00;84.00;;;;;;6238209;22;20066;-79
2023/01/10 10:27:19;;;;;;;0.57;0.57;;;11.10;82.80;;;;;;6238890;22;20000;-79
2023/01/10 10:29:59;;;;;;;0.50;0.50;;;11.30;82.30;;;;;;6194951;23;20016;-79
2023/01/10 10:32:28;;;;;;;0.30;0.30;;;11.30;82.80;;;;;;6208143;23;20011;-79
2023/01/10 10:35:05;;;;;;;0.50;0.50;;;11.40;80.00;;;;;;6207842;23;20012;-79
2023/01/10 10:37:44;;;;;;;0.60;0.60;;;11.40;83.60;;;;;;6208521;23;20044;-79
2023/01/10 10:40:12;;;;;;;0.30;0.30;;;11.40;81.10;;;;;;6214281;23;20028;-73
2023/01/10 10:42:43;;;;;;;0.50;0.50;;;11.50;80.60;;;;;;6212340;23;20012;-74
2023/01/10 10:45:23;;;;;;;1.33;1.23;;;11.50;81.30;;;;;;6213808;23;20477;-73
2023/01/10 10:47:56;;;;;;;1.25;1.15;;;11.50;81.50;;;;;;6213564;23;20024;-73
2023/01/10 10:50:33;;;;;;;0.80;0.80;;;11.50;82.10;;;;;;6213620;23;20000;-73
2023/01/10 10:53:04;;;;;;;0.70;0.70;;;11.50;81.30;;;;;;6212351;23;20004;-73
2023/01/10 10:55:35;;;;;;;0.30;0.30;;;11.60;78.40;;;;;;6213866;23;20004;-74
2023/01/10 10:58:04;;;;;;;0.60;0.60;;;11.70;83.10;;;;;;6212138;23;20019;-74
2023/01/10 11:00:30;;;;;;;1.55;0.55;;;11.70;81.40;;;;;;6211996;23;20000;-74
2023/01/10 11:03:11;;;;;;;0.50;0.50;;;11.70;81.60;;;;;;6213738;23;20005;-74
2023/01/10 11:05:40;;;;;;;0.60;0.50;;;11.80;80.30;;;;;;6213415;23;20000;-74
2023/01/10 11:08:12;;;;;;;0.40;0.40;;;11.90;80.60;;;;;;6213760;23;19997;-73
2023/01/10 11:10:39;;;;;;;0.95;0.80;;;11.90;77.50;;;;;;6213699;23;20000;-74
2023/01/10 11:13:10;;;;;;;0.75;0.75;;;11.90;77.50;;;;;;6211779;23;20001;-74
2023/01/10 11:15:40;;;;;;;1.23;1.17;;;12.00;75.60;;;;;;6212222;23;20019;-73
2023/01/10 11:18:19;;;;;;;0.60;0.60;;;12.00;76.60;;;;;;6212035;23;20337;-74
2023/01/10 11:20:51;;;;;;;1.30;1.20;;;12.00;77.90;;;;;;6213440;23;20007;-74
2023/01/10 11:23:31;;;;;;;0.90;0.90;;;12.00;77.10;;;;;;6213381;23;20001;-73
2023/01/10 11:25:57;;;;;;;0.90;0.90;;;12.00;73.60;;;;;;6212074;23;20274;-74
2023/01/10 11:28:29;;;;;;;0.60;0.60;;;12.10;73.60;;;;;;6213686;23;20011;-74
2023/01/10 11:30:55;;;;;;;0.77;0.50;;;12.10;74.00;;;;;;6211760;23;20032;-74
2023/01/10 11:33:25;;;;;;;0.50;0.50;;;12.20;73.10;;;;;;6213395;23;20007;-74
2023/01/10 11:36:01;;;;;;;0.45;0.45;;;12.20;73.50;;;;;;6213513;23;20012;-73
2023/01/10 11:38:30;;;;;;;0.70;0.32;;;12.30;71.90;;;;;;6213607;23;20001;-74
2023/01/10 11:41:30;;;;;;;1.27;0.40;;;12.30;71.90;;;;;;6213361;23;20005;-73
2023/01/10 11:44:15;;;;;;;1.00;0.50;;;12.40;68.60;;;;;;6211214;23;20011;-73
2023/01/10 11:46:47;;;;;;;0.85;0.30;;;12.40;69.60;;;;;;6206019;23;20123;-73
2023/01/10 11:49:20;;;;;;;0.30;0.30;;;12.50;69.00;;;;;;6208759;23;20055;-73
2023/01/10 11:51:52;;;;;;;0.20;0.20;;;12.50;69.30;;;;;;6211117;23;20084;-74
2023/01/10 11:54:23;;;;;;;0.20;0.20;;;12.60;69.00;;;;;;6209914;23;20008;-73
2023/01/10 11:56:57;;;;;;;0.65;0.65;;;12.60;67.20;;;;;;6207567;23;20009;-73
2023/01/10 11:59:24;;;;;;;0.38;0.38;;;12.60;70.80;;;;;;6207403;23;20009;-73
2023/01/10 12:01:58;;;;;;;0.90;0.40;;;12.60;70.50;;;;;;6208517;23;20009;-74
2023/01/10 12:04:28;;;;;;;0.30;0.30;;;12.60;71.40;;;;;;6207366;23;20040;-74
2023/01/10 12:07:03;;;;;;;0.30;0.30;;;12.70;71.00;;;;;;6209402;23;20640;-74
2023/01/10 12:09:44;;;;;;;0.57;0.30;;;12.70;67.70;;;;;;6209498;23;20553;-74
2023/01/10 12:12:23;;;;;;;0.40;0.40;;;12.70;67.40;;;;;;6209435;23;20337;-73
2023/01/10 12:14:50;;;;;;;0.28;0.28;;;12.60;68.60;;;;;;6208827;23;20001;-73
2023/01/10 12:17:23;;;;;;;0.30;0.30;;;12.70;67.60;;;;;;6208303;23;20329;-73
2023/01/10 12:19:52;;;;;;;0.38;0.35;;;12.70;68.90;;;;;;6208924;23;20001;-74
2023/01/10 12:22:19;;;;;;;0.20;0.20;;;12.70;69.50;;;;;;6209453;23;20011;-74
2023/01/10 12:24:51;;;;;;;0.35;0.35;;;12.80;67.70;;;;;;6210094;23;20005;-73
2023/01/10 12:27:18;;;;;;;1.13;0.40;;;12.80;64.70;;;;;;6212239;23;20008;-75
2023/01/10 12:30:02;;;;;;;0.38;0.32;;;12.70;69.10;;;;;;6220298;23;20432;-74
2023/01/10 12:32:37;;;;;;;1.13;1.02;;;12.80;69.10;;;;;;6215494;23;20058;-74
2023/01/10 12:35:09;;;;;;;1.10;1.00;;;12.80;66.50;;;;;;6242651;23;20449;-73
2023/01/10 12:37:38;;;;;;;;;;;12.80;69.00;;;;;;6242926;22;20007;-73
2023/01/10 12:40:16;;;;;;;0.63;0.63;;;12.90;65.40;;;;;;6216492;23;19895;-74
2023/01/10 12:46:40;;;;;;;0.43;0.30;;;12.80;66.20;;;;;;6242801;22;20062;-74
2023/01/10 12:49:28;;;;;;;0.30;0.30;;;12.80;66.30;;;;;;6243179;22;20020;-74
2023/01/10 12:51:59;;;;;;;0.35;0.25;;;12.80;65.10;;;;;;6242790;22;20000;-75
2023/01/10 12:54:28;;;;;;;0.40;0.40;;;12.80;65.90;;;;;;6243092;22;20413;-74
2023/01/10 12:56:57;;;;;;;0.40;0.40;;;12.70;66.30;;;;;;6242920;22;20493;-74
2023/01/10 12:59:37;;;;;;;1.30;0.60;;;12.70;68.70;;;;;;6241542;23;20439;-75
2023/01/10 13:02:12;;;;;;;0.40;0.40;;;12.70;64.10;;;;;;6214220;23;20310;-75
2023/01/10 13:04:40;;;;;;;0.50;0.50;;;12.70;64.30;;;;;;6215509;23;20418;-75
2023/01/10 13:07:09;;;;;;;0.30;0.30;;;12.70;64.10;;;;;;6215806;23;20007;-74
2023/01/10 13:09:36;;;;;;;0.35;0.25;;;12.70;65.10;;;;;;6242893;22;20297;-75
2023/01/10 13:12:22;;;;;;;0.30;0.30;;;12.80;64.50;;;;;;6242378;22;20000;-74
2023/01/10 13:15:06;;;;;;;0.20;0.20;;;12.70;65.80;;;;;;6216043;23;20440;-74
2023/01/10 13:17:31;;;;;;;0.30;0.30;;;12.70;69.20;;;;;;6242617;22;20107;-74
2023/01/10 13:20:37;;;;;;;0.30;0.30;;;12.70;65.10;;;;;;6212621;23;20008;-74